Time;durP1;ratioP1;P1;durP2;ratioP2;P2;SDS_P1;SDS_P2;PMS_P1;PMS_P2;Temp;Humidity;BMP_temperature;BMP_pressure;BME280_temperature;BME280_humidity;BME280_pressure;Samples;Min_cycle;Max_cycle;Signal;HPM_P1;HPM_P2
2023/08/01 00:01:55;;;;;;;6.22;3.45;;;20.60;99.90;;;;;;5060736;28;20235;-71
2023/08/01 00:04:45;;;;;;;5.10;3.42;;;20.60;99.90;;;;;;5071900;28;20311;-71
2023/08/01 00:07:40;;;;;;;4.53;3.28;;;20.50;99.90;;;;;;5075269;28;20631;-71
2023/08/01 00:10:28;;;;;;;5.57;3.38;;;20.50;99.90;;;;;;5070703;28;20310;-72
2023/08/01 00:13:17;;;;;;;6.32;3.50;;;20.60;99.90;;;;;;5068235;28;20385;-72
2023/08/01 00:16:07;;;;;;;5.85;3.70;;;20.40;99.90;;;;;;5064022;28;20681;-72
2023/08/01 00:18:56;;;;;;;5.75;3.60;;;20.50;99.90;;;;;;5082397;28;20367;-71
2023/08/01 00:21:44;;;;;;;5.95;3.33;;;20.50;99.90;;;;;;5073394;28;20682;-73
2023/08/01 00:24:36;;;;;;;6.32;3.30;;;20.50;99.90;;;;;;5067622;28;20748;-74
2023/08/01 00:27:27;;;;;;;5.35;3.08;;;20.50;99.90;;;;;;5073775;28;20234;-72
2023/08/01 00:30:16;;;;;;;6.53;3.55;;;20.50;99.90;;;;;;5073974;28;20575;-73
2023/08/01 00:33:05;;;;;;;4.90;3.42;;;20.40;99.90;;;;;;5075420;28;20219;-72
2023/08/01 00:35:55;;;;;;;9.00;4.07;;;20.50;99.90;;;;;;5074772;28;20232;-72
2023/08/01 00:38:44;;;;;;;4.78;3.55;;;20.50;99.90;;;;;;5067775;28;20846;-72
2023/08/01 00:41:34;;;;;;;3.92;2.90;;;20.50;99.90;;;;;;5064184;28;20286;-72
2023/08/01 00:44:23;;;;;;;4.95;3.30;;;20.50;99.90;;;;;;5060924;28;20235;-73
2023/08/01 00:47:12;;;;;;;5.68;3.58;;;20.50;99.90;;;;;;5054142;28;20227;-71
2023/08/01 00:50:02;;;;;;;6.95;3.55;;;20.50;99.90;;;;;;5060715;28;20224;-72
2023/08/01 00:52:53;;;;;;;5.78;3.15;;;20.50;99.90;;;;;;5069656;28;20909;-71
2023/08/01 00:55:43;;;;;;;6.38;3.50;;;20.50;99.90;;;;;;5057399;28;20300;-71
2023/08/01 00:58:33;;;;;;;3.53;3.03;;;20.50;99.90;;;;;;5078018;28;20224;-71
2023/08/01 01:01:22;;;;;;;6.38;3.25;;;20.40;99.90;;;;;;5056295;28;20801;-71
2023/08/01 01:04:11;;;;;;;5.13;3.45;;;20.50;99.90;;;;;;5058363;28;20240;-72
2023/08/01 01:07:04;;;;;;;5.03;3.60;;;20.40;99.90;;;;;;5057777;28;20855;-73
2023/08/01 01:09:53;;;;;;;4.22;3.38;;;20.40;99.90;;;;;;5040856;28;20317;-73
2023/08/01 01:12:42;;;;;;;8.15;3.70;;;20.40;99.90;;;;;;5061820;28;20226;-72
2023/08/01 01:15:32;;;;;;;5.65;3.22;;;20.50;99.90;;;;;;5044040;28;20220;-73
2023/08/01 01:18:21;;;;;;;5.80;3.60;;;20.50;99.90;;;;;;5061988;28;20216;-72
2023/08/01 01:21:11;;;;;;;6.35;3.45;;;20.50;99.90;;;;;;5042064;28;20612;-72
2023/08/01 01:24:02;;;;;;;5.30;3.22;;;20.50;99.90;;;;;;5054476;28;20500;-71
2023/08/01 01:26:52;;;;;;;5.88;3.30;;;20.40;99.90;;;;;;5037859;28;20224;-73
2023/08/01 01:29:44;;;;;;;5.25;3.60;;;20.50;99.90;;;;;;5061829;28;20714;-72
2023/08/01 01:32:34;;;;;;;5.43;3.42;;;20.50;99.90;;;;;;5046748;28;20234;-73
2023/08/01 01:35:23;;;;;;;5.18;3.25;;;20.50;99.90;;;;;;5052794;28;20246;-71
2023/08/01 01:38:14;;;;;;;7.28;3.13;;;20.50;99.90;;;;;;5043287;28;21696;-70
2023/08/01 01:41:02;;;;;;;5.25;3.13;;;20.50;99.90;;;;;;5042544;28;20222;-71
2023/08/01 01:43:51;;;;;;;7.25;3.97;;;20.50;99.90;;;;;;5055490;28;20213;-73
2023/08/01 01:46:40;;;;;;;4.80;3.22;;;20.50;99.90;;;;;;5062897;28;20227;-71
2023/08/01 01:49:30;;;;;;;5.60;3.38;;;20.40;99.90;;;;;;5040730;28;20239;-72
2023/08/01 01:52:19;;;;;;;4.35;3.10;;;20.50;99.90;;;;;;5049374;28;20630;-72
2023/08/01 01:55:09;;;;;;;4.47;3.35;;;20.50;99.90;;;;;;5044907;28;20229;-72
2023/08/01 01:57:59;;;;;;;8.82;3.42;;;20.40;99.90;;;;;;5051097;28;20232;-72
2023/08/01 02:00:47;;;;;;;7.82;3.50;;;20.40;99.90;;;;;;5049465;28;20243;-72
2023/08/01 02:03:36;;;;;;;5.18;3.28;;;20.40;99.90;;;;;;5042671;28;20576;-72
2023/08/01 02:06:26;;;;;;;6.75;3.60;;;20.50;99.90;;;;;;5058216;28;20243;-72
2023/08/01 02:12:19;;;;;;;6.22;3.70;;;20.50;99.90;;;;;;5049016;28;20719;-72
2023/08/01 02:15:09;;;;;;;6.45;3.47;;;20.20;99.90;;;;;;5051647;28;20244;-71
2023/08/01 02:17:59;;;;;;;4.57;3.20;;;20.30;99.90;;;;;;5057206;28;20768;-71
2023/08/01 02:20:47;;;;;;;9.23;3.40;;;20.10;99.90;;;;;;5057364;28;20216;-69
2023/08/01 02:23:37;;;;;;;6.93;3.83;;;20.20;99.90;;;;;;5054641;28;20256;-69
2023/08/01 02:26:27;;;;;;;5.20;3.35;;;20.10;99.90;;;;;;5054470;28;20232;-69
2023/08/01 02:29:18;;;;;;;5.95;3.38;;;20.10;99.90;;;;;;5042534;28;20822;-70
2023/08/01 02:32:07;;;;;;;7.28;3.70;;;20.10;99.90;;;;;;5060571;28;20246;-70
2023/08/01 02:34:56;;;;;;;6.53;3.28;;;20.00;99.90;;;;;;5044950;28;20583;-71
2023/08/01 02:37:44;;;;;;;4.53;3.60;;;20.00;99.90;;;;;;5053614;28;20752;-70
2023/08/01 02:40:34;;;;;;;5.45;3.55;;;20.10;99.90;;;;;;5042619;28;20354;-70
2023/08/01 02:43:23;;;;;;;4.88;3.78;;;20.10;99.90;;;;;;5034846;28;20358;-72
2023/08/01 02:46:13;;;;;;;6.07;3.67;;;20.10;99.90;;;;;;5048369;28;20208;-70
2023/08/01 02:49:02;;;;;;;4.85;3.42;;;20.10;99.90;;;;;;5042003;28;20726;-70
2023/08/01 02:51:51;;;;;;;6.13;3.47;;;20.00;99.90;;;;;;5050772;28;20311;-72
2023/08/01 02:54:43;;;;;;;4.90;3.40;;;20.10;99.90;;;;;;5060898;28;20263;-72
2023/08/01 02:57:31;;;;;;;5.88;3.40;;;20.10;99.90;;;;;;5029225;28;20232;-71
2023/08/01 03:00:21;;;;;;;6.07;3.92;;;20.10;99.90;;;;;;5062015;28;20223;-72
2023/08/01 03:03:11;;;;;;;4.68;3.53;;;20.10;99.90;;;;;;5051491;28;21144;-71
2023/08/01 03:06:01;;;;;;;6.63;3.75;;;20.20;99.90;;;;;;5043400;28;20957;-71
2023/08/01 03:08:51;;;;;;;6.80;3.65;;;20.20;99.90;;;;;;5050672;28;20568;-71
2023/08/01 03:11:41;;;;;;;3.88;3.25;;;20.20;99.90;;;;;;5055941;28;20305;-71
2023/08/01 03:14:30;;;;;;;6.43;3.85;;;20.10;99.90;;;;;;5059832;28;20598;-71
2023/08/01 03:17:19;;;;;;;6.68;3.40;;;20.00;99.90;;;;;;5053010;28;20747;-71
2023/08/01 03:20:10;;;;;;;6.60;3.90;;;20.00;99.90;;;;;;5053874;28;20704;-71
2023/08/01 03:22:59;;;;;;;6.05;3.60;;;20.10;99.90;;;;;;5039189;28;20591;-71
2023/08/01 03:25:48;;;;;;;6.30;3.53;;;20.20;99.90;;;;;;5042502;28;20308;-71
2023/08/01 03:28:37;;;;;;;7.13;3.83;;;20.10;99.90;;;;;;5053780;28;20235;-71
2023/08/01 03:31:29;;;;;;;6.05;3.40;;;20.10;99.90;;;;;;5051576;28;20297;-69
2023/08/01 03:34:17;;;;;;;5.55;3.88;;;20.00;99.90;;;;;;5056141;28;20269;-70
2023/08/01 03:37:08;;;;;;;7.65;3.40;;;20.00;99.90;;;;;;5058662;28;20265;-69
2023/08/01 03:39:56;;;;;;;7.40;3.50;;;19.90;99.90;;;;;;5044469;28;20223;-69
2023/08/01 03:42:45;;;;;;;7.80;3.53;;;20.00;99.90;;;;;;5058634;28;20323;-70
2023/08/01 03:45:34;;;;;;;5.43;3.80;;;20.00;99.90;;;;;;5054993;28;20231;-71
2023/08/01 03:48:23;;;;;;;5.28;3.50;;;20.00;99.90;;;;;;5049537;28;20753;-69
2023/08/01 03:51:15;;;;;;;5.40;3.40;;;20.00;99.90;;;;;;5057463;28;21652;-71
2023/08/01 03:54:05;;;;;;;6.25;3.70;;;20.00;99.90;;;;;;5052969;28;20266;-71
2023/08/01 03:57:02;;;;;;;5.00;3.45;;;19.90;99.90;;;;;;5049108;28;20225;-72
2023/08/01 03:59:51;;;;;;;4.65;3.05;;;20.10;99.90;;;;;;5052219;28;20249;-76
2023/08/01 04:02:41;;;;;;;8.25;4.00;;;20.10;99.90;;;;;;5064826;28;20713;-75
2023/08/01 04:05:35;;;;;;;3.90;3.50;;;20.10;99.90;;;;;;5054460;28;20224;-74
2023/08/01 04:08:24;;;;;;;4.80;3.20;;;20.20;99.90;;;;;;5070377;28;20246;-75
2023/08/01 04:11:14;;;;;;;4.10;3.08;;;20.20;99.90;;;;;;5058449;28;20224;-75
2023/08/01 04:14:03;;;;;;;6.72;3.90;;;20.20;99.90;;;;;;5076495;28;20602;-74
2023/08/01 04:16:52;;;;;;;6.35;4.15;;;20.20;99.90;;;;;;5078602;28;20229;-75
2023/08/01 04:19:41;;;;;;;5.47;3.50;;;20.20;99.90;;;;;;5066324;28;20326;-75
2023/08/01 04:22:30;;;;;;;7.13;3.00;;;20.30;99.90;;;;;;5073020;28;20330;-69
2023/08/01 04:25:19;;;;;;;8.82;3.20;;;20.20;99.90;;;;;;5076067;28;20775;-69
2023/08/01 04:28:09;;;;;;;5.88;3.42;;;20.20;99.90;;;;;;5062393;28;20494;-71
2023/08/01 04:30:58;;;;;;;5.78;3.40;;;20.30;99.90;;;;;;5081146;28;20302;-69
2023/08/01 04:33:47;;;;;;;6.75;3.40;;;20.30;99.90;;;;;;5084294;28;20223;-70
2023/08/01 04:36:36;;;;;;;6.90;3.90;;;20.30;99.90;;;;;;5063963;28;20544;-71
2023/08/01 04:39:25;;;;;;;8.95;3.25;;;20.30;99.90;;;;;;5073082;28;20322;-70
2023/08/01 04:42:13;;;;;;;7.28;3.28;;;20.30;99.90;;;;;;5077716;28;20303;-73
2023/08/01 04:45:06;;;;;;;6.88;3.30;;;20.30;99.90;;;;;;5078548;28;20220;-73
2023/08/01 04:47:55;;;;;;;6.35;3.70;;;20.30;99.90;;;;;;5064800;28;20798;-72
2023/08/01 04:50:45;;;;;;;5.85;3.03;;;20.40;99.90;;;;;;5065816;28;20614;-72
2023/08/01 04:53:34;;;;;;;6.75;2.80;;;20.50;99.90;;;;;;5082500;28;20223;-73
2023/08/01 04:56:23;;;;;;;7.38;3.58;;;20.60;99.90;;;;;;5070681;28;20225;-72
2023/08/01 04:59:12;;;;;;;5.65;3.47;;;20.70;99.90;;;;;;5059320;28;20219;-75
2023/08/01 05:02:02;;;;;;;5.18;3.10;;;20.70;99.90;;;;;;5078868;28;20239;-72
2023/08/01 05:04:51;;;;;;;6.75;3.38;;;20.70;99.90;;;;;;5073165;28;20230;-72
2023/08/01 05:07:40;;;;;;;6.53;3.30;;;20.70;99.90;;;;;;5060132;28;20235;-72
2023/08/01 05:10:29;;;;;;;6.32;3.30;;;20.80;99.90;;;;;;5077788;28;20227;-71
2023/08/01 05:13:18;;;;;;;5.97;3.20;;;20.90;99.90;;;;;;5069468;28;20216;-71
2023/08/01 05:16:07;;;;;;;6.60;3.05;;;20.90;99.90;;;;;;5067239;28;20223;-73
2023/08/01 05:18:57;;;;;;;7.22;3.22;;;21.10;99.90;;;;;;5080127;28;21317;-71
2023/08/01 05:21:47;;;;;;;6.78;3.22;;;21.30;99.90;;;;;;5082367;28;20301;-70
2023/08/01 05:24:36;;;;;;;5.93;2.83;;;21.30;99.90;;;;;;5073802;28;20231;-72
2023/08/01 05:27:25;;;;;;;7.50;2.92;;;21.30;99.90;;;;;;5071143;28;20234;-70
2023/08/01 05:30:13;;;;;;;6.25;3.00;;;21.20;99.90;;;;;;5085141;28;20223;-71
2023/08/01 05:33:02;;;;;;;7.20;2.88;;;21.20;99.90;;;;;;5080588;28;20726;-73
2023/08/01 05:35:52;;;;;;;8.88;3.13;;;21.10;99.90;;;;;;5079703;28;20752;-71
2023/08/01 05:38:41;;;;;;;6.68;3.15;;;21.10;99.90;;;;;;5079379;28;20254;-71
2023/08/01 05:41:30;;;;;;;5.90;2.78;;;21.10;99.90;;;;;;5078526;28;20231;-72
2023/08/01 05:44:19;;;;;;;5.05;2.78;;;21.10;99.90;;;;;;5075507;28;20231;-72
2023/08/01 05:47:08;;;;;;;4.70;2.85;;;21.20;99.90;;;;;;5084231;28;21056;-71
2023/08/01 05:49:57;;;;;;;6.38;2.80;;;21.20;99.90;;;;;;5067465;28;20223;-71
2023/08/01 05:52:47;;;;;;;9.85;3.22;;;21.30;99.90;;;;;;5070013;28;20270;-71
2023/08/01 05:55:36;;;;;;;6.30;2.90;;;21.40;99.90;;;;;;5067533;28;20226;-71
2023/08/01 05:58:26;;;;;;;6.40;3.28;;;21.50;99.90;;;;;;5067250;28;20254;-74
2023/08/01 06:01:17;;;;;;;4.65;2.65;;;21.70;99.90;;;;;;5081772;28;20246;-71
2023/08/01 06:04:06;;;;;;;7.30;3.20;;;21.80;99.90;;;;;;5051720;28;20267;-72
2023/08/01 06:06:56;;;;;;;7.70;3.40;;;21.90;99.90;;;;;;5052227;28;20217;-73
2023/08/01 06:09:46;;;;;;;8.50;2.90;;;22.00;99.90;;;;;;5051484;28;20763;-75
2023/08/01 06:12:35;;;;;;;5.88;2.78;;;22.10;99.90;;;;;;5060516;28;20224;-75
2023/08/01 06:15:24;;;;;;;5.35;2.80;;;22.00;99.90;;;;;;5055001;28;20672;-74
2023/08/01 06:18:12;;;;;;;7.55;3.53;;;22.00;99.90;;;;;;5061146;28;20232;-74
2023/08/01 06:21:02;;;;;;;7.72;3.00;;;22.10;99.90;;;;;;5047918;28;20220;-75
2023/08/01 06:23:51;;;;;;;6.57;2.78;;;22.10;99.90;;;;;;5058847;28;20224;-74
2023/08/01 06:26:41;;;;;;;10.30;3.00;;;22.10;99.90;;;;;;5058643;28;20296;-75
2023/08/01 06:29:31;;;;;;;6.45;3.40;;;22.10;99.90;;;;;;5048974;28;20705;-75
2023/08/01 06:32:20;;;;;;;4.90;2.72;;;22.00;99.90;;;;;;5047437;28;20228;-75
2023/08/01 06:35:09;;;;;;;4.43;2.90;;;22.10;99.90;;;;;;5057233;28;20236;-74
2023/08/01 06:37:58;;;;;;;5.45;3.17;;;22.20;99.90;;;;;;5057584;28;20326;-70
2023/08/01 06:40:47;;;;;;;5.78;2.90;;;22.40;99.90;;;;;;5048233;28;20220;-71
2023/08/01 06:43:38;;;;;;;7.45;3.10;;;22.50;99.90;;;;;;5057391;28;20215;-71
2023/08/01 06:46:27;;;;;;;4.30;3.28;;;22.50;99.90;;;;;;5035811;28;20880;-72
2023/08/01 06:49:16;;;;;;;4.60;2.85;;;22.50;99.90;;;;;;5043162;28;20223;-73
2023/08/01 06:52:05;;;;;;;7.85;2.92;;;22.70;99.90;;;;;;5057717;28;20220;-74
2023/08/01 06:54:54;;;;;;;6.55;3.58;;;22.70;99.90;;;;;;5059220;28;20220;-71
2023/08/01 06:57:43;;;;;;;6.78;3.20;;;22.90;99.90;;;;;;5061053;28;20595;-71
2023/08/01 07:00:33;;;;;;;8.23;2.90;;;23.10;99.90;;;;;;5056151;28;20215;-71
2023/08/01 07:03:22;;;;;;;5.70;2.80;;;23.30;99.90;;;;;;5054347;28;20259;-72
2023/08/01 07:06:11;;;;;;;7.30;3.05;;;23.40;99.90;;;;;;5048012;28;20849;-72
2023/08/01 07:09:00;;;;;;;8.82;2.65;;;23.50;99.90;;;;;;5034181;28;20386;-75
2023/08/01 07:11:49;;;;;;;9.90;3.58;;;23.70;99.90;;;;;;5054925;28;20339;-75
2023/08/01 07:14:37;;;;;;;7.20;3.13;;;23.70;99.90;;;;;;5043589;28;20228;-76
2023/08/01 07:17:28;;;;;;;11.75;3.08;;;23.80;99.90;;;;;;5039709;28;20766;-76
2023/08/01 07:20:19;;;;;;;5.88;3.20;;;24.00;99.90;;;;;;5055993;28;20240;-76
2023/08/01 07:23:08;;;;;;;10.88;3.83;;;23.90;99.90;;;;;;5050390;28;20336;-74
2023/08/01 07:25:57;;;;;;;5.40;3.67;;;23.90;99.90;;;;;;5052516;28;20679;-72
2023/08/01 07:28:46;;;;;;;7.85;3.28;;;24.10;99.90;;;;;;5057003;28;20302;-73
2023/08/01 07:31:36;;;;;;;9.40;3.03;;;24.00;99.90;;;;;;5050914;28;20355;-73
2023/08/01 07:34:26;;;;;;;4.97;2.90;;;24.20;99.90;;;;;;5050970;28;20224;-73
2023/08/01 07:37:15;;;;;;;5.22;3.25;;;24.50;99.90;;;;;;5043982;28;20230;-74
2023/08/01 07:40:05;;;;;;;7.07;3.20;;;24.60;99.90;;;;;;5047164;28;20255;-74
2023/08/01 07:42:54;;;;;;;5.72;3.10;;;24.70;99.90;;;;;;5054604;28;20576;-73
2023/08/01 07:45:43;;;;;;;9.95;3.00;;;24.70;99.90;;;;;;5036936;28;20326;-73
2023/08/01 07:48:32;;;;;;;6.03;3.35;;;24.90;99.90;;;;;;5048179;28;21017;-73
2023/08/01 07:51:22;;;;;;;6.00;3.00;;;25.00;99.90;;;;;;5051606;28;20239;-73
2023/08/01 07:54:12;;;;;;;10.02;3.63;;;24.80;99.90;;;;;;5040914;28;20224;-73
2023/08/01 07:57:00;;;;;;;10.05;3.40;;;24.60;99.90;;;;;;5057535;28;20216;-73
2023/08/01 07:59:49;;;;;;;8.32;4.82;;;24.60;99.90;;;;;;5049783;28;20226;-73
2023/08/01 08:02:38;;;;;;;7.20;3.20;;;24.70;99.90;;;;;;5050983;28;20333;-72
2023/08/01 08:05:27;;;;;;;4.82;2.80;;;24.70;99.90;;;;;;5052929;28;20232;-72
2023/08/01 08:08:18;;;;;;;5.95;3.08;;;24.80;99.90;;;;;;5030124;28;20241;-73
2023/08/01 08:11:07;;;;;;;15.68;3.42;;;25.00;99.90;;;;;;5043727;28;20357;-73
2023/08/01 08:13:55;;;;;;;4.82;3.20;;;24.90;99.90;;;;;;5048190;28;20248;-73
2023/08/01 08:16:44;;;;;;;5.07;3.00;;;25.00;99.90;;;;;;5051906;28;20245;-73
2023/08/01 08:19:34;;;;;;;5.90;3.05;;;25.00;99.90;;;;;;5064362;28;20220;-73
2023/08/01 08:22:22;;;;;;;6.97;3.30;;;25.00;99.90;;;;;;5054675;28;20225;-74
2023/08/01 08:25:13;;;;;;;5.05;2.97;;;25.00;99.90;;;;;;5056060;28;20232;-73
2023/08/01 08:28:02;;;;;;;7.90;3.25;;;25.10;99.90;;;;;;5055629;28;20228;-74
2023/08/01 08:30:51;;;;;;;6.88;3.35;;;25.10;99.90;;;;;;5050224;28;20782;-72
2023/08/01 08:33:41;;;;;;;6.47;3.13;;;25.00;99.90;;;;;;5054722;28;20762;-74
2023/08/01 08:36:29;;;;;;;4.47;3.03;;;24.90;99.90;;;;;;5054526;28;20254;-74
2023/08/01 08:39:19;;;;;;;6.13;3.22;;;24.80;99.90;;;;;;5048640;28;20609;-74
2023/08/01 08:42:10;;;;;;;3.75;2.85;;;24.70;99.90;;;;;;5066478;28;20268;-73
2023/08/01 08:45:02;;;;;;;4.28;3.03;;;24.60;99.90;;;;;;5051680;28;20225;-74
2023/08/01 08:48:02;;;;;;;3.95;3.55;;;24.60;99.90;;;;;;5053737;28;20513;-74
2023/08/01 08:50:52;;;;;;;5.28;3.42;;;24.50;99.90;;;;;;5042081;28;20228;-73
2023/08/01 08:53:42;;;;;;;6.78;3.20;;;24.30;99.90;;;;;;5038794;28;20236;-72
2023/08/01 08:56:31;;;;;;;6.00;3.15;;;24.30;99.90;;;;;;5053382;28;20311;-73
2023/08/01 08:59:22;;;;;;;5.68;3.10;;;24.30;99.90;;;;;;5058814;28;20722;-74
2023/08/01 09:02:11;;;;;;;5.60;2.80;;;24.20;99.90;;;;;;5056758;28;20269;-73
2023/08/01 09:05:00;;;;;;;6.70;2.92;;;24.10;99.90;;;;;;5069858;28;20219;-73
2023/08/01 09:07:52;;;;;;;5.30;3.05;;;24.10;99.90;;;;;;5053957;28;20227;-73
2023/08/01 09:10:41;;;;;;;5.60;2.55;;;24.10;99.90;;;;;;5072945;28;20231;-74
2023/08/01 09:13:30;;;;;;;5.90;2.67;;;24.00;99.90;;;;;;5072241;28;20288;-73
2023/08/01 09:16:20;;;;;;;5.55;2.70;;;24.00;99.90;;;;;;5064111;28;20273;-74
2023/08/01 09:19:10;;;;;;;5.97;3.20;;;24.10;99.90;;;;;;5064026;28;20238;-73
2023/08/01 09:21:59;;;;;;;4.10;2.80;;;24.20;99.90;;;;;;5075823;28;20219;-74
2023/08/01 09:24:53;;;;;;;3.75;2.92;;;24.30;99.90;;;;;;5079179;28;20211;-74
2023/08/01 09:27:42;;;;;;;6.95;2.97;;;24.40;99.90;;;;;;5067123;28;20267;-75
2023/08/01 09:30:31;;;;;;;6.32;3.20;;;24.50;99.90;;;;;;5078598;28;20231;-75
2023/08/01 09:33:22;;;;;;;6.05;3.20;;;24.60;99.90;;;;;;5079866;28;20215;-72
2023/08/01 09:36:11;;;;;;;6.38;2.47;;;24.70;99.90;;;;;;5067196;28;20211;-73
2023/08/01 09:39:00;;;;;;;6.68;3.00;;;24.80;99.90;;;;;;5068826;28;20233;-75
2023/08/01 09:41:56;;;;;;;7.25;2.58;;;24.80;99.90;;;;;;5070377;28;20231;-74
2023/08/01 09:44:47;;;;;;;4.53;3.00;;;24.70;99.90;;;;;;5068404;28;20219;-72
2023/08/01 09:47:37;;;;;;;11.73;2.80;;;24.60;99.90;;;;;;5080550;28;20598;-73
2023/08/01 09:50:28;;;;;;;4.88;3.15;;;24.50;99.90;;;;;;5062907;28;20348;-73
2023/08/01 09:53:17;;;;;;;7.03;3.30;;;24.30;99.90;;;;;;5068884;28;20236;-73
2023/08/01 09:56:06;;;;;;;3.85;2.90;;;24.50;99.90;;;;;;5081222;28;20227;-73
2023/08/01 09:58:56;;;;;;;6.50;2.88;;;24.70;99.90;;;;;;5078119;28;20220;-72
2023/08/01 10:01:47;;;;;;;4.55;2.92;;;24.70;99.90;;;;;;5075364;28;20227;-72
2023/08/01 10:04:40;;;;;;;6.97;2.88;;;24.70;99.90;;;;;;5055969;28;20236;-73
2023/08/01 10:07:33;;;;;;;6.43;2.80;;;24.60;99.90;;;;;;5055723;28;20240;-73
2023/08/01 10:10:22;;;;;;;6.30;3.00;;;24.50;99.90;;;;;;5059765;28;20315;-73
2023/08/01 10:13:14;;;;;;;4.55;3.22;;;24.40;99.90;;;;;;5054340;28;20229;-73
2023/08/01 10:16:03;;;;;;;7.25;3.03;;;24.20;99.90;;;;;;5054351;28;20244;-73
2023/08/01 10:18:53;;;;;;;4.55;3.20;;;24.20;99.90;;;;;;5052694;28;20239;-75
2023/08/01 10:21:43;;;;;;;6.75;3.20;;;24.30;99.90;;;;;;5059137;28;20224;-74
2023/08/01 10:24:35;;;;;;;6.72;3.95;;;24.20;99.90;;;;;;5059439;28;20236;-73
2023/08/01 10:27:23;;;;;;;5.65;3.60;;;24.10;99.90;;;;;;5050164;28;20232;-73
2023/08/01 10:30:13;;;;;;;7.35;4.00;;;23.90;99.90;;;;;;5046754;28;20233;-74
2023/08/01 10:33:02;;;;;;;7.30;3.88;;;23.60;99.90;;;;;;5056181;28;20223;-73
2023/08/01 10:35:53;;;;;;;5.40;3.17;;;23.50;99.90;;;;;;5057153;28;20303;-75
2023/08/01 10:38:50;;;;;;;7.35;3.30;;;23.40;99.90;;;;;;5046045;28;20237;-74
2023/08/01 10:41:44;;;;;;;6.85;3.90;;;23.30;99.90;;;;;;5052874;28;20282;-74
2023/08/01 10:44:35;;;;;;;5.80;3.40;;;23.20;99.90;;;;;;5051945;28;20220;-74
2023/08/01 10:47:27;;;;;;;3.92;3.40;;;23.10;99.90;;;;;;5054165;28;20758;-74
2023/08/01 10:50:17;;;;;;;7.93;4.20;;;23.00;99.90;;;;;;5056373;28;20224;-74
2023/08/01 10:53:07;;;;;;;5.85;3.28;;;23.00;99.90;;;;;;5059584;28;20224;-74
2023/08/01 10:55:56;;;;;;;6.90;3.67;;;23.00;99.90;;;;;;5062645;28;20247;-73
2023/08/01 10:58:47;;;;;;;6.00;3.67;;;23.00;99.90;;;;;;5052492;28;20225;-74
2023/08/01 11:01:45;;;;;;;5.07;3.67;;;23.10;99.90;;;;;;5044534;28;20282;-74
2023/08/01 11:04:34;;;;;;;4.78;3.75;;;23.10;99.90;;;;;;5040966;28;20241;-74
2023/08/01 11:07:23;;;;;;;7.93;3.88;;;23.10;99.90;;;;;;5052889;28;20232;-74
2023/08/01 11:10:13;;;;;;;7.03;3.85;;;23.10;99.90;;;;;;5055880;28;20220;-74
2023/08/01 11:13:03;;;;;;;5.95;3.45;;;22.90;99.90;;;;;;5053586;28;20220;-74
2023/08/01 11:15:56;;;;;;;5.95;3.90;;;23.00;99.90;;;;;;5059349;28;20228;-74
2023/08/01 11:18:45;;;;;;;7.78;4.10;;;23.00;99.90;;;;;;5044873;28;20581;-74
2023/08/01 11:21:36;;;;;;;7.03;4.47;;;23.10;99.90;;;;;;5054399;28;20240;-74
2023/08/01 11:24:26;;;;;;;8.55;4.30;;;23.10;99.90;;;;;;5046344;28;20241;-74
2023/08/01 11:27:15;;;;;;;5.50;3.97;;;23.00;99.90;;;;;;5057882;28;20234;-74
2023/08/01 11:30:05;;;;;;;8.05;3.88;;;23.10;99.90;;;;;;5057108;28;20669;-74
2023/08/01 11:32:55;;;;;;;7.70;4.07;;;22.90;99.90;;;;;;5057149;28;20254;-75
2023/08/01 11:35:44;;;;;;;4.70;3.80;;;22.90;99.90;;;;;;5050682;28;20232;-75
2023/08/01 11:38:35;;;;;;;7.10;3.80;;;22.80;99.90;;;;;;5053385;28;20216;-75
2023/08/01 11:41:24;;;;;;;8.23;4.30;;;22.90;99.90;;;;;;5055304;28;20317;-75
2023/08/01 11:44:13;;;;;;;6.80;4.13;;;23.00;99.90;;;;;;5056982;28;20247;-74
2023/08/01 11:47:03;;;;;;;6.72;4.18;;;22.90;99.90;;;;;;5046944;28;20208;-75
2023/08/01 11:49:54;;;;;;;5.68;3.85;;;23.00;99.90;;;;;;5042313;28;20204;-75
2023/08/01 11:52:47;;;;;;;8.70;4.47;;;23.00;99.90;;;;;;5043673;28;20726;-73
2023/08/01 11:55:38;;;;;;;7.88;4.45;;;23.00;99.90;;;;;;5075986;28;20290;-75
2023/08/01 11:58:30;;;;;;;7.18;3.90;;;23.20;99.90;;;;;;5074877;28;20220;-74
2023/08/01 12:01:20;;;;;;;5.18;3.97;;;23.10;99.90;;;;;;5065210;28;20619;-74
2023/08/01 12:04:09;;;;;;;5.97;3.75;;;23.20;99.90;;;;;;5077550;28;20227;-74
2023/08/01 12:07:00;;;;;;;9.85;3.95;;;23.30;99.90;;;;;;5076369;28;20219;-74
2023/08/01 12:09:57;;;;;;;7.53;3.88;;;23.20;99.90;;;;;;5062908;28;20299;-73
2023/08/01 12:12:47;;;;;;;5.78;3.65;;;23.30;99.90;;;;;;5061935;28;20219;-74
2023/08/01 12:15:36;;;;;;;7.20;3.95;;;23.40;99.90;;;;;;5072964;28;20693;-72
2023/08/01 12:18:28;;;;;;;6.15;3.80;;;23.30;99.90;;;;;;5061261;28;20259;-77
2023/08/01 12:21:37;;;;;;;6.63;3.83;;;23.20;99.90;;;;;;5072292;28;20276;-69
2023/08/01 12:24:36;;;;;;;5.90;3.50;;;23.20;99.90;;;;;;5060859;28;20978;-71
2023/08/01 12:27:26;;;;;;;6.65;3.70;;;23.40;99.90;;;;;;5077520;28;20228;-70
2023/08/01 12:30:15;;;;;;;5.22;4.13;;;23.40;99.90;;;;;;5073903;28;20258;-69
2023/08/01 12:33:04;;;;;;;8.18;4.15;;;23.40;99.90;;;;;;5065412;28;20748;-79
2023/08/01 12:35:53;;;;;;;8.65;3.80;;;23.20;99.90;;;;;;5076778;28;20231;-72
2023/08/01 12:38:43;;;;;;;5.22;4.07;;;23.30;99.90;;;;;;5078924;28;20223;-73
2023/08/01 12:41:34;;;;;;;5.88;4.18;;;23.20;99.90;;;;;;5077213;28;20686;-70
2023/08/01 12:44:23;;;;;;;6.53;3.72;;;23.20;99.90;;;;;;5061513;28;20686;-76
2023/08/01 12:47:12;;;;;;;6.55;3.67;;;23.30;99.90;;;;;;5071900;28;20227;-80
2023/08/01 12:50:01;;;;;;;7.10;3.75;;;23.30;99.90;;;;;;5064921;28;20793;-82
2023/08/01 12:52:50;;;;;;;5.40;3.95;;;23.30;99.90;;;;;;5080681;28;20598;-74
2023/08/01 12:55:40;;;;;;;5.55;3.83;;;23.30;99.90;;;;;;5080806;28;20593;-74
2023/08/01 12:58:30;;;;;;;7.03;3.80;;;23.40;99.90;;;;;;5067191;28;20594;-75
2023/08/01 13:01:19;;;;;;;5.43;3.53;;;23.50;99.90;;;;;;5062811;28;20239;-83
2023/08/01 13:04:08;;;;;;;11.20;4.00;;;23.70;99.90;;;;;;5074818;28;20224;-80
2023/08/01 13:06:57;;;;;;;8.38;3.80;;;23.90;99.90;;;;;;5079118;28;20236;-78
2023/08/01 13:09:46;;;;;;;6.07;3.83;;;24.00;99.90;;;;;;5081910;28;20231;-81
2023/08/01 13:12:42;;;;;;;5.32;3.25;;;23.70;99.90;;;;;;5074036;28;20300;-79
2023/08/01 13:15:33;;;;;;;6.97;4.22;;;23.80;99.90;;;;;;5083601;28;20224;-77
2023/08/01 13:18:22;;;;;;;7.28;3.83;;;24.00;99.90;;;;;;5065903;28;20790;-77
2023/08/01 13:21:12;;;;;;;5.90;3.45;;;24.10;99.90;;;;;;5078416;28;20311;-77
2023/08/01 13:24:04;;;;;;;4.53;3.55;;;24.10;99.90;;;;;;5082779;28;20370;-79
2023/08/01 13:26:53;;;;;;;4.90;3.20;;;24.10;99.90;;;;;;5078598;28;20211;-75
2023/08/01 13:29:42;;;;;;;6.85;3.58;;;24.10;99.90;;;;;;5077161;28;20428;-80
2023/08/01 13:32:33;;;;;;;6.65;3.80;;;23.90;99.90;;;;;;5069758;28;20259;-84
2023/08/01 13:35:22;;;;;;;11.13;4.00;;;24.00;99.90;;;;;;5062031;28;20232;-76
2023/08/01 13:38:12;;;;;;;8.48;3.90;;;24.00;99.90;;;;;;5073421;28;20216;-78
2023/08/01 13:41:01;;;;;;;5.78;3.47;;;23.90;99.90;;;;;;5075115;28;20220;-82
2023/08/01 13:43:52;;;;;;;6.45;4.00;;;23.80;99.90;;;;;;5068178;28;20220;-80
2023/08/01 13:46:41;;;;;;;6.22;3.63;;;23.90;99.90;;;;;;5076685;28;20216;-85
2023/08/01 13:49:31;;;;;;;5.47;3.38;;;23.80;99.90;;;;;;5065647;28;20301;-85
2023/08/01 13:52:20;;;;;;;6.13;3.45;;;23.80;99.90;;;;;;5068719;28;20262;-87
2023/08/01 13:55:11;;;;;;;5.97;3.65;;;23.80;99.90;;;;;;5073448;28;20223;-84
2023/08/01 13:57:59;;;;;;;8.23;3.60;;;23.70;99.90;;;;;;5077165;28;20915;-79
2023/08/01 14:00:48;;;;;;;6.93;3.92;;;23.50;99.90;;;;;;5062859;28;20288;-77
2023/08/01 14:03:39;;;;;;;5.07;3.75;;;23.30;99.90;;;;;;5077152;28;20231;-81
2023/08/01 14:06:29;;;;;;;5.63;3.83;;;23.30;99.90;;;;;;5048837;28;20231;-81
2023/08/01 14:09:18;;;;;;;5.25;3.55;;;23.00;99.90;;;;;;5078240;28;20343;-81
2023/08/01 14:12:08;;;;;;;6.45;3.88;;;22.80;99.90;;;;;;5073403;28;21018;-80
2023/08/01 14:14:57;;;;;;;4.40;3.60;;;22.70;99.90;;;;;;5057798;28;20311;-78
2023/08/01 14:17:46;;;;;;;8.35;4.57;;;22.70;99.90;;;;;;5078631;28;20816;-79
2023/08/01 14:20:36;;;;;;;5.68;3.97;;;22.80;99.90;;;;;;5082618;28;20227;-78
2023/08/01 14:23:28;;;;;;;7.43;3.90;;;22.90;99.90;;;;;;5068731;28;20306;-77
2023/08/01 14:26:17;;;;;;;5.03;4.00;;;23.00;99.90;;;;;;5073911;28;20599;-79
2023/08/01 14:29:06;;;;;;;5.95;3.90;;;23.10;99.90;;;;;;5075006;28;20216;-76
2023/08/01 14:31:55;;;;;;;7.78;3.95;;;23.20;99.90;;;;;;5076661;28;20218;-77
2023/08/01 14:34:44;;;;;;;6.57;3.78;;;23.30;99.90;;;;;;5084368;28;20211;-77
2023/08/01 14:37:34;;;;;;;5.30;4.00;;;23.40;99.90;;;;;;5067221;28;20227;-75
2023/08/01 14:40:24;;;;;;;7.35;3.90;;;23.50;99.90;;;;;;5067697;28;20255;-80
2023/08/01 14:43:13;;;;;;;6.00;3.88;;;23.40;99.90;;;;;;5076265;28;20251;-83
2023/08/01 14:46:02;;;;;;;6.80;3.72;;;23.40;99.90;;;;;;5069538;28;20228;-88